Time;durP1;ratioP1;P1;durP2;ratioP2;P2;SDS_P1;SDS_P2;PMS_P1;PMS_P2;Temp;Humidity;BMP_temperature;BMP_pressure;BME280_temperature;BME280_humidity;BME280_pressure;Samples;Min_cycle;Max_cycle;Signal;HPM_P1;HPM_P2
2021/06/07 00:01:57;;;;;;;497.85;346.65;;;;;;;;;;5065536;28;20037;-74
2021/06/07 00:04:24;;;;;;;497.88;344.05;;;;;;;;;;5055846;28;20048;-74
2021/06/07 00:06:50;;;;;;;497.27;344.38;;;;;;;;;;5051726;28;20032;-74
2021/06/07 00:09:17;;;;;;;498.20;345.88;;;;;;;;;;5051950;28;20037;-74
2021/06/07 00:11:45;;;;;;;499.38;352.02;;;;;;;;;;5050940;28;20028;-74
2021/06/07 00:14:13;;;;;;;496.60;347.25;;;;;;;;;;5053614;28;20025;-74
2021/06/07 00:16:39;;;;;;;495.88;347.95;;;;;;;;;;5037526;28;20033;-74
2021/06/07 00:19:09;;;;;;;495.70;344.05;;;;;;;;;;5057731;28;20334;-74
2021/06/07 00:21:35;;;;;;;495.17;344.70;;;;;;;;;;5043255;28;20448;-74
2021/06/07 00:24:07;;;;;;;494.52;342.27;;;;;;;;;;5057302;28;20618;-74
2021/06/07 00:26:33;;;;;;;496.30;341.17;;;;;;;;;;5058063;28;20342;-73
2021/06/07 00:28:59;;;;;;;499.95;348.58;;;;;;;;;;5050301;28;20028;-74
2021/06/07 00:31:26;;;;;;;497.55;341.70;;;;;;;;;;5041257;28;20021;-74
2021/06/07 00:33:52;;;;;;;496.48;345.40;;;;;;;;;;5049902;28;20028;-74
2021/06/07 00:36:22;;;;;;;498.58;347.50;;;;;;;;;;5045053;28;20369;-74
2021/06/07 00:38:51;;;;;;;503.52;350.45;;;;;;;;;;5051661;28;20021;-73
2021/06/07 00:41:18;;;;;;;498.85;352.42;;;;;;;;;;5047735;28;20029;-74
2021/06/07 00:43:44;;;;;;;500.00;346.60;;;;;;;;;;5053853;28;20448;-74
2021/06/07 00:46:11;;;;;;;497.58;343.88;;;;;;;;;;5059045;28;20500;-74
2021/06/07 00:48:38;;;;;;;498.88;343.95;;;;;;;;;;5046659;28;20484;-73
2021/06/07 00:51:06;;;;;;;496.60;338.63;;;;;;;;;;5053193;28;20033;-74
2021/06/07 00:53:32;;;;;;;497.67;339.83;;;;;;;;;;5052104;28;20031;-74
2021/06/07 00:56:00;;;;;;;496.45;341.00;;;;;;;;;;5054040;28;20025;-74
2021/06/07 00:58:28;;;;;;;500.83;350.17;;;;;;;;;;5055917;28;20021;-73
2021/06/07 01:01:06;;;;;;;497.98;341.73;;;;;;;;;;5053040;28;20040;-74
2021/06/07 01:03:33;;;;;;;499.65;345.80;;;;;;;;;;5046306;28;20020;-74
2021/06/07 01:05:59;;;;;;;500.42;341.05;;;;;;;;;;5066780;28;20036;-74
2021/06/07 01:08:26;;;;;;;498.50;347.33;;;;;;;;;;5049278;28;20431;-74
2021/06/07 01:10:53;;;;;;;497.13;340.75;;;;;;;;;;5056271;28;20357;-74
2021/06/07 01:13:20;;;;;;;500.38;346.13;;;;;;;;;;5050270;28;20113;-74
2021/06/07 01:15:47;;;;;;;503.10;346.23;;;;;;;;;;5056378;28;20483;-74
2021/06/07 01:18:18;;;;;;;499.75;341.48;;;;;;;;;;5051985;28;20083;-74
2021/06/07 01:20:45;;;;;;;501.88;343.63;;;;;;;;;;5051606;28;20588;-74
2021/06/07 01:23:11;;;;;;;499.90;338.27;;;;;;;;;;5044528;28;20035;-74
2021/06/07 01:25:38;;;;;;;501.02;337.92;;;;;;;;;;5054027;28;20033;-74
2021/06/07 01:28:09;;;;;;;508.08;338.45;;;;;;;;;;5037894;28;20412;-74
2021/06/07 01:30:40;;;;;;;511.55;349.63;;;;;;;;;;5049066;28;20083;-74
2021/06/07 01:33:26;;;;;;;507.27;334.38;;;;;;;;;;5044863;28;20025;-74
2021/06/07 01:35:53;;;;;;;512.97;339.23;;;;;;;;;;5045496;28;20511;-74
2021/06/07 01:38:19;;;;;;;516.40;342.83;;;;;;;;;;5057973;28;20028;-73
2021/06/07 01:40:47;;;;;;;516.05;339.88;;;;;;;;;;5073050;28;20116;-74
2021/06/07 01:43:13;;;;;;;512.63;339.75;;;;;;;;;;5057317;28;20495;-74
2021/06/07 01:45:41;;;;;;;516.22;336.90;;;;;;;;;;5056531;28;20094;-74
2021/06/07 01:48:08;;;;;;;520.33;344.35;;;;;;;;;;5056993;28;20028;-75
2021/06/07 01:50:34;;;;;;;530.95;353.08;;;;;;;;;;5058090;28;20116;-74
2021/06/07 01:53:00;;;;;;;532.92;362.65;;;;;;;;;;5054577;28;20067;-74
2021/06/07 01:55:30;;;;;;;537.28;361.20;;;;;;;;;;5056572;28;20364;-74
2021/06/07 01:57:56;;;;;;;529.63;351.98;;;;;;;;;;5055890;28;20052;-73
2021/06/07 02:00:32;;;;;;;527.55;354.85;;;;;;;;;;5076577;28;20467;-73
2021/06/07 02:02:58;;;;;;;524.42;346.10;;;;;;;;;;5045718;28;20041;-73
2021/06/07 02:05:46;;;;;;;530.47;359.50;;;;;;;;;;5054814;28;20029;-73
2021/06/07 02:08:13;;;;;;;533.90;356.50;;;;;;;;;;5060084;28;20468;-74
2021/06/07 02:10:41;;;;;;;519.25;341.98;;;;;;;;;;5054468;28;20103;-74
2021/06/07 02:13:08;;;;;;;526.90;349.08;;;;;;;;;;5059625;28;20074;-74
2021/06/07 02:15:34;;;;;;;511.25;325.33;;;;;;;;;;5045824;28;20447;-74
2021/06/07 02:18:15;;;;;;;508.55;340.10;;;;;;;;;;5049514;28;20413;-73
2021/06/07 02:20:41;;;;;;;505.10;327.45;;;;;;;;;;5053510;28;20032;-74
2021/06/07 02:23:07;;;;;;;503.35;331.25;;;;;;;;;;5057385;28;20044;-74
2021/06/07 02:25:33;;;;;;;505.70;330.23;;;;;;;;;;5041054;28;20040;-74
2021/06/07 02:27:59;;;;;;;503.38;332.38;;;;;;;;;;5052929;28;20033;-73
2021/06/07 02:30:27;;;;;;;505.50;327.77;;;;;;;;;;5061000;28;20033;-74
2021/06/07 02:32:54;;;;;;;511.98;337.33;;;;;;;;;;5054865;28;20025;-74
2021/06/07 02:35:20;;;;;;;503.05;330.60;;;;;;;;;;5059436;28;20045;-73
2021/06/07 02:37:47;;;;;;;502.17;323.48;;;;;;;;;;5055699;28;20025;-74
2021/06/07 02:40:18;;;;;;;508.27;329.65;;;;;;;;;;5054386;28;20029;-74
2021/06/07 02:42:44;;;;;;;510.20;336.13;;;;;;;;;;5058407;28;20021;-74
2021/06/07 02:45:12;;;;;;;507.17;334.58;;;;;;;;;;5062887;28;20049;-74
2021/06/07 02:47:39;;;;;;;508.17;336.20;;;;;;;;;;5035055;28;20040;-74
2021/06/07 02:50:06;;;;;;;509.08;336.80;;;;;;;;;;5037960;28;20076;-74
2021/06/07 02:52:33;;;;;;;515.75;334.38;;;;;;;;;;5035570;28;20046;-73
2021/06/07 02:54:59;;;;;;;525.13;344.80;;;;;;;;;;5019717;28;20040;-73
2021/06/07 02:57:25;;;;;;;535.78;354.80;;;;;;;;;;5037944;28;20034;-73
2021/06/07 02:59:51;;;;;;;545.10;353.75;;;;;;;;;;5041377;28;20386;-73
2021/06/07 03:02:17;;;;;;;548.42;344.40;;;;;;;;;;5040816;28;20029;-73
2021/06/07 03:07:47;;;;;;;596.22;374.48;;;;;;;;;;5023534;28;20116;-73
2021/06/07 03:10:14;;;;;;;579.83;368.35;;;;;;;;;;5006358;28;20057;-76
2021/06/07 03:12:40;;;;;;;575.00;374.95;;;;;;;;;;5042777;28;20025;-74
2021/06/07 03:15:08;;;;;;;560.28;353.60;;;;;;;;;;5042272;28;20100;-73
2021/06/07 03:17:35;;;;;;;683.90;401.38;;;;;;;;;;5042188;28;20029;-73
2021/06/07 03:20:01;;;;;;;528.22;326.85;;;;;;;;;;5038590;28;20021;-74
2021/06/07 03:22:27;;;;;;;533.15;332.88;;;;;;;;;;5023476;28;20029;-73
2021/06/07 03:24:53;;;;;;;554.55;359.02;;;;;;;;;;5018630;28;20496;-73
2021/06/07 03:27:20;;;;;;;749.25;433.35;;;;;;;;;;5008218;28;20037;-73
2021/06/07 03:29:51;;;;;;;536.90;334.60;;;;;;;;;;5017357;28;20098;-75
2021/06/07 03:32:17;;;;;;;560.75;355.38;;;;;;;;;;5041692;28;20091;-73
2021/06/07 03:34:43;;;;;;;490.65;312.83;;;;;;;;;;5018891;28;20500;-73
2021/06/07 03:37:09;;;;;;;503.10;316.42;;;;;;;;;;5016207;28;20062;-73
2021/06/07 03:39:36;;;;;;;494.58;313.80;;;;;;;;;;5019706;28;20111;-73
2021/06/07 03:42:03;;;;;;;500.63;318.88;;;;;;;;;;5030223;28;20025;-75
2021/06/07 03:44:29;;;;;;;506.35;321.08;;;;;;;;;;5043581;28;20037;-76
2021/06/07 03:46:55;;;;;;;502.23;319.92;;;;;;;;;;5028392;28;20353;-75
2021/06/07 03:49:21;;;;;;;522.05;324.45;;;;;;;;;;5043057;28;20063;-75
2021/06/07 03:51:47;;;;;;;499.08;316.60;;;;;;;;;;5063367;28;20098;-76
2021/06/07 03:54:19;;;;;;;761.13;470.45;;;;;;;;;;5050458;28;20116;-75
2021/06/07 03:56:45;;;;;;;543.03;342.95;;;;;;;;;;5059032;28;20032;-75
2021/06/07 03:59:12;;;;;;;532.00;341.38;;;;;;;;;;5050943;28;20021;-75
2021/06/07 04:01:38;;;;;;;556.47;363.80;;;;;;;;;;5051951;28;20388;-75
2021/06/07 04:04:10;;;;;;;643.38;422.38;;;;;;;;;;5041033;28;20021;-76
2021/06/07 04:06:36;;;;;;;556.35;355.80;;;;;;;;;;5053524;28;20396;-76
2021/06/07 04:09:03;;;;;;;579.05;369.15;;;;;;;;;;5053745;28;20240;-75
2021/06/07 04:11:29;;;;;;;771.97;475.33;;;;;;;;;;5043907;28;20107;-75
2021/06/07 04:13:56;;;;;;;618.95;399.60;;;;;;;;;;5058479;28;20033;-76
2021/06/07 04:16:23;;;;;;;708.25;459.98;;;;;;;;;;5028151;28;20469;-75
2021/06/07 04:18:49;;;;;;;505.98;323.00;;;;;;;;;;5023676;28;20071;-75
2021/06/07 04:21:15;;;;;;;590.28;381.83;;;;;;;;;;5043349;28;20037;-76
2021/06/07 04:23:41;;;;;;;577.35;366.98;;;;;;;;;;5042616;28;20029;-76
2021/06/07 04:26:07;;;;;;;518.92;326.08;;;;;;;;;;5042567;28;20518;-75
2021/06/07 04:28:33;;;;;;;527.55;344.98;;;;;;;;;;5032218;28;20112;-75
2021/06/07 04:31:00;;;;;;;516.05;337.08;;;;;;;;;;5048112;28;20441;-75
2021/06/07 04:33:26;;;;;;;512.05;325.95;;;;;;;;;;5045386;28;20037;-75
2021/06/07 04:35:52;;;;;;;516.67;338.80;;;;;;;;;;5048780;28;20341;-75
2021/06/07 04:38:18;;;;;;;511.45;329.00;;;;;;;;;;5038817;28;20092;-75
2021/06/07 04:40:44;;;;;;;508.75;332.63;;;;;;;;;;5051973;28;20380;-75
2021/06/07 04:43:11;;;;;;;512.30;341.95;;;;;;;;;;5048639;28;20029;-75
2021/06/07 04:45:37;;;;;;;511.92;332.42;;;;;;;;;;5039869;28;20089;-75
2021/06/07 04:48:15;;;;;;;513.67;341.60;;;;;;;;;;5046089;28;20037;-75
2021/06/07 04:50:42;;;;;;;513.90;337.45;;;;;;;;;;5040694;28;20026;-75
2021/06/07 04:53:10;;;;;;;515.97;339.95;;;;;;;;;;5055498;28;20021;-76
2021/06/07 04:55:37;;;;;;;518.67;349.25;;;;;;;;;;5042887;28;20028;-76
2021/06/07 04:58:05;;;;;;;515.17;341.17;;;;;;;;;;5050178;28;20066;-75
2021/06/07 05:00:35;;;;;;;524.53;355.95;;;;;;;;;;5042085;28;20499;-75
2021/06/07 05:03:01;;;;;;;550.03;366.92;;;;;;;;;;5048434;28;20468;-75
2021/06/07 05:05:27;;;;;;;525.33;350.15;;;;;;;;;;5041611;28;20469;-76
2021/06/07 05:07:54;;;;;;;519.03;350.00;;;;;;;;;;5050465;28;20013;-75
2021/06/07 05:10:20;;;;;;;519.42;355.00;;;;;;;;;;5047732;28;20088;-76
2021/06/07 05:12:47;;;;;;;512.05;347.77;;;;;;;;;;5028599;28;20025;-76
2021/06/07 05:15:14;;;;;;;512.50;350.35;;;;;;;;;;5051375;28;20033;-75
2021/06/07 05:17:40;;;;;;;509.92;350.25;;;;;;;;;;5030433;28;20103;-76
2021/06/07 05:20:07;;;;;;;508.15;345.55;;;;;;;;;;5043859;28;20052;-76
2021/06/07 05:22:33;;;;;;;507.63;344.65;;;;;;;;;;5038054;28;20397;-76
2021/06/07 05:24:59;;;;;;;512.50;351.48;;;;;;;;;;5040276;28;20035;-76
2021/06/07 05:27:25;;;;;;;512.85;352.85;;;;;;;;;;5025994;28;20431;-76
2021/06/07 05:29:51;;;;;;;504.05;342.92;;;;;;;;;;5041677;28;20027;-76
2021/06/07 05:32:18;;;;;;;503.70;342.75;;;;;;;;;;5030255;28;20041;-76
2021/06/07 05:34:50;;;;;;;506.98;353.13;;;;;;;;;;5042485;28;20104;-74
2021/06/07 05:37:16;;;;;;;506.48;347.55;;;;;;;;;;5034544;28;20021;-76
2021/06/07 05:39:42;;;;;;;504.65;351.25;;;;;;;;;;5034513;28;20021;-76
2021/06/07 05:42:08;;;;;;;507.50;352.13;;;;;;;;;;5043465;28;20079;-74
2021/06/07 05:44:34;;;;;;;508.13;355.70;;;;;;;;;;5049151;28;20104;-76
2021/06/07 05:47:00;;;;;;;509.83;353.95;;;;;;;;;;5036432;28;20049;-76
2021/06/07 05:49:26;;;;;;;509.38;354.20;;;;;;;;;;5037946;28;20102;-76
2021/06/07 05:51:52;;;;;;;512.53;358.05;;;;;;;;;;5051120;28;20040;-76
2021/06/07 05:54:18;;;;;;;506.15;350.38;;;;;;;;;;5052371;28;20025;-74
2021/06/07 05:56:44;;;;;;;552.40;388.50;;;;;;;;;;5050457;28;20024;-76
2021/06/07 05:59:11;;;;;;;540.92;378.17;;;;;;;;;;5047240;28;20512;-76
2021/06/07 06:01:37;;;;;;;543.28;382.10;;;;;;;;;;5044994;28;20348;-76
2021/06/07 06:04:04;;;;;;;583.80;414.90;;;;;;;;;;5048310;28;20035;-76
2021/06/07 06:06:31;;;;;;;576.95;422.25;;;;;;;;;;5043816;28;20124;-74
2021/06/07 06:08:57;;;;;;;624.22;452.27;;;;;;;;;;5050032;28;20029;-76
2021/06/07 06:11:25;;;;;;;617.08;451.20;;;;;;;;;;5050039;28;20033;-76
2021/06/07 06:13:56;;;;;;;546.75;393.52;;;;;;;;;;5044386;28;20021;-74
2021/06/07 06:16:25;;;;;;;548.03;399.63;;;;;;;;;;5052047;28;20022;-75
2021/06/07 06:18:51;;;;;;;554.97;402.98;;;;;;;;;;5049269;28;20403;-74
2021/06/07 06:21:17;;;;;;;568.47;427.05;;;;;;;;;;5040125;28;20369;-74
2021/06/07 06:23:43;;;;;;;511.52;376.77;;;;;;;;;;5043874;28;20036;-74
2021/06/07 06:26:12;;;;;;;521.03;387.92;;;;;;;;;;5045698;28;20442;-74
2021/06/07 06:28:39;;;;;;;526.47;387.55;;;;;;;;;;5049509;28;20379;-74
2021/06/07 06:31:06;;;;;;;567.13;425.83;;;;;;;;;;5043034;28;20037;-73
2021/06/07 06:33:32;;;;;;;540.25;406.75;;;;;;;;;;5063104;28;20176;-74
2021/06/07 06:35:58;;;;;;;537.67;410.38;;;;;;;;;;5069324;28;20372;-74
2021/06/07 06:38:30;;;;;;;535.65;410.88;;;;;;;;;;5062265;28;20033;-74
2021/06/07 06:40:59;;;;;;;538.28;410.83;;;;;;;;;;5063751;28;20056;-75
2021/06/07 06:43:25;;;;;;;528.25;402.77;;;;;;;;;;5066443;28;20044;-74
2021/06/07 06:45:51;;;;;;;525.47;404.33;;;;;;;;;;5050823;28;20136;-74
2021/06/07 06:48:17;;;;;;;521.50;398.60;;;;;;;;;;5046475;28;20128;-74
2021/06/07 06:50:44;;;;;;;527.08;409.02;;;;;;;;;;5072190;28;20082;-74
2021/06/07 06:53:13;;;;;;;534.50;418.45;;;;;;;;;;5052921;28;20063;-74
2021/06/07 06:55:39;;;;;;;527.92;403.42;;;;;;;;;;5049097;28;20031;-74
2021/06/07 06:58:07;;;;;;;541.40;424.70;;;;;;;;;;5065492;28;20033;-74
2021/06/07 07:00:38;;;;;;;557.35;444.02;;;;;;;;;;5060693;28;20153;-75
2021/06/07 07:03:04;;;;;;;;;;;;;;;;;;5068655;28;20021;-75
2021/06/07 07:05:30;;;;;;;548.03;422.30;;;;;;;;;;5053778;28;20280;-75
2021/06/07 07:08:01;;;;;;;544.92;428.77;;;;;;;;;;5049823;28;20017;-76
2021/06/07 07:10:27;;;;;;;612.95;492.98;;;;;;;;;;5045989;28;20037;-75
2021/06/07 07:13:15;;;;;;;556.17;439.63;;;;;;;;;;5055254;28;20104;-74
2021/06/07 07:15:44;;;;;;;590.47;472.48;;;;;;;;;;5049027;28;20048;-74
2021/06/07 07:18:11;;;;;;;821.13;647.80;;;;;;;;;;5041996;28;20326;-75
2021/06/07 07:20:37;;;;;;;485.45;387.60;;;;;;;;;;5044636;28;20021;-74
2021/06/07 07:23:06;;;;;;;486.27;393.23;;;;;;;;;;5043780;28;20426;-74
2021/06/07 07:25:34;;;;;;;487.73;394.45;;;;;;;;;;5041894;28;20380;-74
2021/06/07 07:28:01;;;;;;;490.70;402.40;;;;;;;;;;5044223;28;20469;-75
2021/06/07 07:30:31;;;;;;;490.55;400.60;;;;;;;;;;5048314;28;20036;-74
2021/06/07 07:32:57;;;;;;;493.60;406.30;;;;;;;;;;5050120;28;20049;-75
2021/06/07 07:35:26;;;;;;;504.77;403.27;;;;;;;;;;5048151;28;20036;-74
2021/06/07 07:37:52;;;;;;;494.08;412.15;;;;;;;;;;5059661;28;20022;-75
2021/06/07 07:40:20;;;;;;;492.60;410.23;;;;;;;;;;5046962;28;20033;-75
2021/06/07 07:42:50;;;;;;;491.52;412.92;;;;;;;;;;5052469;28;20021;-76
2021/06/07 07:45:19;;;;;;;496.20;415.25;;;;;;;;;;5046579;28;20032;-76
2021/06/07 07:47:47;;;;;;;495.77;419.98;;;;;;;;;;5041891;28;20100;-77
2021/06/07 07:50:16;;;;;;;495.27;421.27;;;;;;;;;;5047609;28;20349;-75
2021/06/07 07:52:42;;;;;;;488.48;410.25;;;;;;;;;;5043248;28;20489;-75
2021/06/07 07:55:09;;;;;;;490.42;414.85;;;;;;;;;;5051881;28;20020;-75
2021/06/07 07:57:36;;;;;;;491.73;419.27;;;;;;;;;;5047021;28;20029;-76
2021/06/07 08:00:09;;;;;;;492.00;418.83;;;;;;;;;;5032988;28;20025;-76
2021/06/07 08:02:35;;;;;;;492.77;420.67;;;;;;;;;;5044521;28;20056;-77
2021/06/07 08:05:02;;;;;;;494.10;422.98;;;;;;;;;;5048272;28;20057;-76
2021/06/07 08:07:28;;;;;;;490.55;420.77;;;;;;;;;;5049997;28;20074;-77
2021/06/07 08:10:01;;;;;;;494.05;424.48;;;;;;;;;;5046248;28;20033;-75
2021/06/07 08:12:28;;;;;;;492.33;426.27;;;;;;;;;;5034517;28;20083;-76
2021/06/07 08:14:54;;;;;;;493.65;422.70;;;;;;;;;;5068735;28;20079;-74
2021/06/07 08:17:20;;;;;;;493.60;422.48;;;;;;;;;;5044496;28;20368;-75
2021/06/07 08:19:47;;;;;;;487.05;412.40;;;;;;;;;;5039543;28;20772;-75
2021/06/07 08:22:13;;;;;;;496.05;430.50;;;;;;;;;;5043254;28;20045;-78
2021/06/07 08:24:41;;;;;;;493.80;426.98;;;;;;;;;;5047345;28;20179;-75
2021/06/07 08:27:08;;;;;;;496.40;430.08;;;;;;;;;;5042329;28;20029;-75
2021/06/07 08:29:34;;;;;;;497.77;433.92;;;;;;;;;;5048890;28;20492;-77
2021/06/07 08:32:01;;;;;;;495.27;430.10;;;;;;;;;;5047215;28;20115;-75
2021/06/07 08:34:28;;;;;;;495.63;433.38;;;;;;;;;;5044527;28;20037;-76
2021/06/07 08:36:54;;;;;;;494.02;430.75;;;;;;;;;;5049855;28;20104;-75
2021/06/07 08:39:26;;;;;;;496.15;432.35;;;;;;;;;;5042760;28;20032;-74
2021/06/07 08:41:52;;;;;;;497.67;433.05;;;;;;;;;;5046437;28;20119;-74
2021/06/07 08:44:38;;;;;;;495.92;437.58;;;;;;;;;;5033400;28;20021;-76
2021/06/07 08:47:05;;;;;;;499.92;438.30;;;;;;;;;;5038354;28;20114;-74
2021/06/07 08:49:32;;;;;;;497.73;437.30;;;;;;;;;;5043762;28;20033;-74
2021/06/07 08:51:59;;;;;;;502.10;444.38;;;;;;;;;;5046885;28;20370;-77
2021/06/07 08:54:25;;;;;;;500.08;443.42;;;;;;;;;;5048082;28;20519;-75
2021/06/07 08:57:18;;;;;;;507.60;451.95;;;;;;;;;;5022977;28;20021;-75
2021/06/07 08:59:44;;;;;;;505.83;450.42;;;;;;;;;;5037163;28;20027;-76
2021/06/07 09:02:10;;;;;;;512.28;456.80;;;;;;;;;;5036183;28;20157;-76
2021/06/07 09:04:47;;;;;;;516.45;460.92;;;;;;;;;;5046465;28;20061;-76
2021/06/07 09:07:37;;;;;;;524.13;468.50;;;;;;;;;;5040816;28;20179;-76
2021/06/07 09:10:12;;;;;;;532.08;476.25;;;;;;;;;;5012757;28;20026;-75
2021/06/07 09:12:39;;;;;;;542.05;486.20;;;;;;;;;;5031652;28;20022;-77
2021/06/07 09:15:06;;;;;;;546.13;490.23;;;;;;;;;;5045971;28;20028;-75
2021/06/07 09:17:32;;;;;;;555.25;498.98;;;;;;;;;;5016288;28;20033;-76
2021/06/07 09:20:13;;;;;;;566.63;510.65;;;;;;;;;;5043624;28;20453;-75
2021/06/07 09:22:40;;;;;;;575.90;519.55;;;;;;;;;;5048662;28;20369;-77
2021/06/07 09:25:14;;;;;;;579.08;522.95;;;;;;;;;;5019431;28;20056;-76
2021/06/07 09:28:06;;;;;;;588.97;532.65;;;;;;;;;;5024309;28;20436;-76
2021/06/07 09:30:38;;;;;;;604.40;547.65;;;;;;;;;;5008229;28;20045;-76
2021/06/07 09:33:22;;;;;;;603.30;547.05;;;;;;;;;;5031012;28;20090;-75
2021/06/07 09:36:04;;;;;;;603.30;547.13;;;;;;;;;;5038184;28;20033;-74
2021/06/07 09:38:53;;;;;;;605.83;549.50;;;;;;;;;;5060518;28;20037;-75
2021/06/07 09:41:19;;;;;;;616.55;560.00;;;;;;;;;;5023409;28;20042;-75
2021/06/07 09:44:11;;;;;;;618.97;562.42;;;;;;;;;;5009700;28;20060;-76
2021/06/07 09:46:37;;;;;;;620.65;564.25;;;;;;;;;;5011739;28;20103;-75
2021/06/07 09:49:14;;;;;;;638.28;581.55;;;;;;;;;;5008504;28;20026;-72
2021/06/07 09:51:42;;;;;;;640.13;583.42;;;;;;;;;;5000200;28;20073;-76
2021/06/07 09:54:13;;;;;;;636.67;580.17;;;;;;;;;;5009490;28;20032;-75
2021/06/07 09:56:56;;;;;;;642.60;585.63;;;;;;;;;;5027276;28;20108;-75
2021/06/07 09:59:38;;;;;;;658.63;601.47;;;;;;;;;;5028855;28;20040;-75
2021/06/07 10:02:26;;;;;;;662.45;605.25;;;;;;;;;;5005602;28;20033;-74
2021/06/07 10:04:52;;;;;;;674.05;616.63;;;;;;;;;;5002923;28;20440;-76
2021/06/07 10:07:19;;;;;;;674.13;616.88;;;;;;;;;;5012704;28;20037;-75
2021/06/07 10:10:24;;;;;;;680.22;622.63;;;;;;;;;;5013561;28;20037;-74
2021/06/07 10:12:50;;;;;;;693.90;636.08;;;;;;;;;;4990803;28;20037;-75
2021/06/07 10:15:36;;;;;;;698.35;640.65;;;;;;;;;;5053674;28;20052;-73
2021/06/07 10:18:22;;;;;;;683.83;626.30;;;;;;;;;;5043842;28;20037;-76
2021/06/07 10:20:54;;;;;;;674.70;617.30;;;;;;;;;;5007916;28;20170;-73
2021/06/07 10:23:25;;;;;;;675.22;618.08;;;;;;;;;;5011729;28;20069;-74
2021/06/07 10:25:53;;;;;;;692.78;634.78;;;;;;;;;;5001895;28;20038;-73
2021/06/07 10:28:29;;;;;;;687.45;630.00;;;;;;;;;;5008172;28;20473;-74
2021/06/07 10:31:17;;;;;;;689.83;632.45;;;;;;;;;;4991318;28;20126;-74
2021/06/07 10:33:55;;;;;;;692.60;635.13;;;;;;;;;;5009440;28;20133;-74
2021/06/07 10:36:23;;;;;;;678.28;621.22;;;;;;;;;;4998621;28;20087;-74
2021/06/07 10:39:17;;;;;;;690.80;633.20;;;;;;;;;;5000897;28;20106;-72
2021/06/07 10:42:09;;;;;;;697.28;639.70;;;;;;;;;;5009210;28;20034;-75
2021/06/07 10:44:35;;;;;;;697.35;639.83;;;;;;;;;;5010654;28;20481;-74
2021/06/07 10:47:07;;;;;;;705.60;647.67;;;;;;;;;;5005825;28;20046;-75
2021/06/07 10:49:39;;;;;;;702.72;645.15;;;;;;;;;;5008634;28;20166;-76
2021/06/07 10:52:27;;;;;;;713.17;655.03;;;;;;;;;;5008390;28;20044;-75
2021/06/07 10:55:02;;;;;;;721.20;662.95;;;;;;;;;;5015843;28;20067;-76
2021/06/07 10:57:39;;;;;;;724.40;666.17;;;;;;;;;;5039114;28;20029;-73
2021/06/07 11:00:22;;;;;;;730.85;672.22;;;;;;;;;;5047036;28;20232;-74
2021/06/07 11:02:55;;;;;;;719.42;661.17;;;;;;;;;;5044809;28;20815;-77
2021/06/07 11:05:25;;;;;;;711.22;653.28;;;;;;;;;;5051339;28;20095;-78
2021/06/07 11:08:00;;;;;;;705.78;647.97;;;;;;;;;;5043557;28;20025;-80
2021/06/07 11:10:33;;;;;;;713.58;655.58;;;;;;;;;;5058305;28;20044;-80
2021/06/07 11:13:20;;;;;;;698.58;640.90;;;;;;;;;;5053160;28;20049;-76
2021/06/07 11:15:46;;;;;;;706.08;647.78;;;;;;;;;;5052501;28;20037;-78
2021/06/07 11:18:23;;;;;;;696.85;639.15;;;;;;;;;;5056705;28;20071;-77
2021/06/07 11:20:50;;;;;;;690.30;632.55;;;;;;;;;;5059836;28;20029;-79
2021/06/07 11:23:25;;;;;;;684.72;627.08;;;;;;;;;;5051875;28;20161;-80
2021/06/07 11:25:52;;;;;;;674.58;617.08;;;;;;;;;;5034550;28;20060;-79
2021/06/07 11:28:27;;;;;;;671.83;614.30;;;;;;;;;;5049833;28;20025;-79
2021/06/07 11:30:56;;;;;;;660.95;603.58;;;;;;;;;;5043762;28;20021;-77
2021/06/07 11:39:50;;;;;;;637.03;580.15;;;;;;;;;;5054937;28;20051;-77
2021/06/07 11:42:21;;;;;;;642.25;585.13;;;;;;;;;;5045997;28;20045;-80
2021/06/07 11:44:56;;;;;;;642.47;585.47;;;;;;;;;;5033739;28;20606;-77
2021/06/07 11:47:42;;;;;;;639.35;581.83;;;;;;;;;;5055814;28;20041;-78
2021/06/07 11:53:14;;;;;;;660.38;602.83;;;;;;;;;;5048565;28;20035;-77
2021/06/07 11:55:40;;;;;;;667.05;609.63;;;;;;;;;;5043518;28;20025;-79
2021/06/07 11:58:06;;;;;;;676.45;619.03;;;;;;;;;;5053816;28;20029;-76
2021/06/07 12:00:44;;;;;;;688.55;630.95;;;;;;;;;;5056290;28;20017;-79
2021/06/07 12:03:12;;;;;;;686.80;629.40;;;;;;;;;;5053244;28;20025;-76
2021/06/07 12:05:38;;;;;;;700.72;643.03;;;;;;;;;;5055546;28;20017;-77
2021/06/07 12:08:06;;;;;;;707.00;649.13;;;;;;;;;;5055071;28;20052;-78
2021/06/07 12:10:34;;;;;;;712.90;655.08;;;;;;;;;;5053898;28;20388;-80
2021/06/07 12:16:08;;;;;;;712.70;654.65;;;;;;;;;;5049734;28;20028;-77
2021/06/07 12:18:38;;;;;;;720.13;662.05;;;;;;;;;;5048132;28;20021;-77
2021/06/07 12:21:05;;;;;;;726.10;667.75;;;;;;;;;;5039233;28;20075;-79
2021/06/07 12:23:34;;;;;;;735.50;677.00;;;;;;;;;;5043667;28;20026;-76
2021/06/07 12:32:29;;;;;;;729.85;671.50;;;;;;;;;;5054485;28;20064;-76
2021/06/07 12:35:22;;;;;;;718.28;660.38;;;;;;;;;;5058243;28;20487;-77
2021/06/07 12:37:57;;;;;;;721.03;663.10;;;;;;;;;;5048162;28;20179;-78
2021/06/07 12:40:29;;;;;;;719.60;661.63;;;;;;;;;;5033389;28;20018;-79
2021/06/07 12:43:02;;;;;;;722.80;664.65;;;;;;;;;;5049098;28;20022;-78
2021/06/07 12:45:35;;;;;;;720.40;662.42;;;;;;;;;;5044488;28;20025;-77
2021/06/07 12:48:15;;;;;;;726.22;668.30;;;;;;;;;;5036936;28;20052;-76
2021/06/07 12:50:42;;;;;;;719.83;661.97;;;;;;;;;;5047153;28;20487;-77
2021/06/07 12:56:20;;;;;;;746.05;687.30;;;;;;;;;;5041147;28;20491;-76
2021/06/07 12:58:51;;;;;;;737.92;679.67;;;;;;;;;;5053377;28;20028;-77
2021/06/07 13:01:17;;;;;;;736.30;677.95;;;;;;;;;;5051362;28;20783;-76
2021/06/07 13:03:56;;;;;;;737.22;679.05;;;;;;;;;;5050395;28;20045;-77
2021/06/07 13:06:29;;;;;;;740.78;682.50;;;;;;;;;;5044058;28;20511;-75
2021/06/07 13:09:01;;;;;;;741.03;682.58;;;;;;;;;;5042639;28;20115;-77
2021/06/07 13:11:35;;;;;;;733.13;675.03;;;;;;;;;;5071767;28;20116;-78
2021/06/07 13:14:02;;;;;;;738.20;680.03;;;;;;;;;;5071732;28;20077;-75
2021/06/07 13:16:52;;;;;;;726.90;669.08;;;;;;;;;;5068648;28;20029;-76
2021/06/07 13:19:25;;;;;;;727.50;669.47;;;;;;;;;;5051885;28;20021;-77
2021/06/07 13:22:03;;;;;;;731.40;673.10;;;;;;;;;;5048439;28;20487;-78
2021/06/07 13:24:32;;;;;;;731.78;673.55;;;;;;;;;;5050543;28;20028;-75
2021/06/07 13:27:25;;;;;;;727.70;669.58;;;;;;;;;;5047777;28;20063;-77
2021/06/07 13:29:55;;;;;;;724.72;666.92;;;;;;;;;;5050083;28;20318;-79
2021/06/07 13:32:37;;;;;;;721.97;664.33;;;;;;;;;;5050151;28;20030;-80
2021/06/07 13:35:03;;;;;;;713.65;655.70;;;;;;;;;;5062703;28;20590;-79
2021/06/07 13:37:54;;;;;;;697.08;639.55;;;;;;;;;;5056029;28;20112;-79
2021/06/07 13:40:20;;;;;;;676.55;619.17;;;;;;;;;;5058209;28;20519;-79
2021/06/07 13:43:00;;;;;;;656.35;599.47;;;;;;;;;;5048654;28;20017;-78
2021/06/07 13:45:36;;;;;;;657.88;600.35;;;;;;;;;;5052764;28;20025;-78
2021/06/07 13:48:27;;;;;;;659.83;602.40;;;;;;;;;;5054079;28;20033;-77
2021/06/07 13:50:55;;;;;;;648.92;592.10;;;;;;;;;;5040113;28;20028;-78
2021/06/07 13:53:22;;;;;;;644.42;587.60;;;;;;;;;;5052720;28;20027;-77
2021/06/07 13:55:49;;;;;;;635.22;578.30;;;;;;;;;;5051409;28;20027;-77
2021/06/07 13:58:19;;;;;;;623.35;566.40;;;;;;;;;;5051880;28;20035;-79
2021/06/07 14:01:03;;;;;;;621.60;564.58;;;;;;;;;;5053012;28;20048;-78
2021/06/07 14:03:31;;;;;;;633.47;576.05;;;;;;;;;;5049687;28;20036;-78
2021/06/07 14:06:01;;;;;;;673.47;613.33;;;;;;;;;;5050624;28;20028;-78
2021/06/07 14:08:28;;;;;;;659.50;600.78;;;;;;;;;;5051653;28;20033;-80
2021/06/07 14:10:55;;;;;;;660.42;601.50;;;;;;;;;;5053043;28;20029;-78
2021/06/07 14:16:26;;;;;;;647.05;588.05;;;;;;;;;;5058633;28;20040;-78
2021/06/07 14:18:54;;;;;;;639.95;581.17;;;;;;;;;;5048999;28;20045;-79
2021/06/07 14:21:32;;;;;;;649.40;589.78;;;;;;;;;;5052633;28;20510;-80
2021/06/07 14:26:53;;;;;;;642.35;581.53;;;;;;;;;;5046436;28;20071;-78
2021/06/07 14:29:19;;;;;;;1074.85;980.60;;;;;;;;;;5050899;28;20454;-78
2021/06/07 14:31:45;;;;;;;964.55;876.30;;;;;;;;;;5054426;28;20053;-78
2021/06/07 14:34:11;;;;;;;976.80;887.17;;;;;;;;;;5047815;28;20092;-78
2021/06/07 14:36:38;;;;;;;992.05;901.95;;;;;;;;;;5063931;28;20448;-77
2021/06/07 14:42:36;;;;;;;822.75;748.08;;;;;;;;;;5056233;28;20033;-76
2021/06/07 14:45:02;;;;;;;717.90;651.22;;;;;;;;;;5035282;28;20400;-79